createdAt,value
2022-12-14T00:01:48.736Z,-2.80
2022-12-14T00:04:17.001Z,-2.80
2022-12-14T00:06:44.827Z,-2.80
2022-12-14T00:09:13.940Z,-2.80
2022-12-14T00:11:41.690Z,-2.80
2022-12-14T00:14:09.467Z,-2.80
2022-12-14T00:16:37.308Z,-2.80
2022-12-14T00:19:05.638Z,-2.80
2022-12-14T00:21:33.468Z,-2.80
2022-12-14T00:24:01.264Z,-2.80
2022-12-14T00:26:32.105Z,-2.80
2022-12-14T00:29:01.197Z,-2.80
2022-12-14T00:31:29.483Z,-2.80
2022-12-14T00:33:57.345Z,-2.80
2022-12-14T00:36:25.482Z,-2.80
2022-12-14T00:38:53.209Z,-2.70
2022-12-14T00:41:20.969Z,-2.70
2022-12-14T00:43:50.081Z,-2.70
2022-12-14T00:46:18.179Z,-2.70
2022-12-14T00:48:46.521Z,-2.70
2022-12-14T00:51:15.579Z,-2.70
2022-12-14T00:53:45.433Z,-2.70
2022-12-14T00:56:13.496Z,-2.70
2022-12-14T00:58:41.532Z,-2.60
2022-12-14T01:01:13.551Z,-2.60
2022-12-14T01:03:41.567Z,-2.60
2022-12-14T01:06:14.590Z,-2.60
2022-12-14T01:08:42.441Z,-2.60
2022-12-14T01:11:11.189Z,-2.50
2022-12-14T01:13:39.893Z,-2.50
2022-12-14T01:16:11.286Z,-2.50
2022-12-14T01:18:40.628Z,-2.50
2022-12-14T01:21:13.501Z,-2.50
2022-12-14T01:23:41.558Z,-2.40
2022-12-14T01:26:09.287Z,-2.50
2022-12-14T01:28:37.472Z,-2.50
2022-12-14T01:31:12.736Z,-2.40
2022-12-14T01:33:40.645Z,-2.40
2022-12-14T01:36:10.542Z,-2.40
2022-12-14T01:38:38.910Z,-2.40
2022-12-14T01:41:13.926Z,-2.40
2022-12-14T01:43:49.353Z,-2.40
2022-12-14T01:46:22.643Z,-2.40
2022-12-14T01:48:53.298Z,-2.40
2022-12-14T01:51:21.131Z,-2.40
2022-12-14T01:53:49.130Z,-2.40
2022-12-14T01:56:17.734Z,-2.40
2022-12-14T01:58:45.493Z,-2.40
2022-12-14T02:01:14.501Z,-2.40
2022-12-14T02:03:46.393Z,-2.40
2022-12-14T02:06:18.703Z,-2.40
2022-12-14T02:08:48.194Z,-2.40
2022-12-14T02:11:18.392Z,-2.40
2022-12-14T02:13:46.144Z,-2.30
2022-12-14T02:16:16.820Z,-2.30
2022-12-14T02:18:45.966Z,-2.30
2022-12-14T02:21:23.570Z,-2.30
2022-12-14T02:24:28.663Z,-2.30
2022-12-14T02:27:09.181Z,-2.30
2022-12-14T02:30:07.688Z,-2.30
2022-12-14T02:32:55.443Z,-2.30
2022-12-14T02:35:33.986Z,-2.30
2022-12-14T02:38:09.004Z,-2.30
2022-12-14T02:40:42.502Z,-2.30
2022-12-14T02:43:18.439Z,-2.30
2022-12-14T02:45:54.197Z,-2.30
2022-12-14T02:48:26.243Z,-2.30
2022-12-14T02:51:01.570Z,-2.30
2022-12-14T02:53:35.445Z,-2.30
2022-12-14T02:56:09.345Z,-2.30
2022-12-14T02:58:40.851Z,-2.30
2022-12-14T03:01:14.819Z,-2.30
2022-12-14T03:03:43.431Z,-2.30
2022-12-14T03:06:15.447Z,-2.30
2022-12-14T03:08:47.238Z,-2.30
2022-12-14T03:11:20.005Z,-2.30
2022-12-14T03:13:53.822Z,-2.30
2022-12-14T03:16:26.738Z,-2.30
2022-12-14T03:19:01.412Z,-2.30
2022-12-14T03:21:33.497Z,-2.30
2022-12-14T03:24:06.638Z,-2.30
2022-12-14T03:26:40.580Z,-2.30
2022-12-14T03:29:12.959Z,-2.30
2022-12-14T03:31:49.014Z,-2.30
2022-12-14T03:34:21.437Z,-2.20
2022-12-14T03:36:54.677Z,-2.30
2022-12-14T03:39:27.633Z,-2.30
2022-12-14T03:42:04.417Z,-2.30
2022-12-14T03:44:41.868Z,-2.30
2022-12-14T03:47:29.660Z,-2.30
2022-12-14T03:50:02.291Z,-2.30
2022-12-14T03:52:36.900Z,-2.30
2022-12-14T03:55:17.186Z,-2.30
2022-12-14T03:58:00.403Z,-2.30
2022-12-14T04:00:32.575Z,-2.30
2022-12-14T04:03:09.312Z,-2.30
2022-12-14T04:05:48.743Z,-2.30
2022-12-14T04:08:24.757Z,-2.30
2022-12-14T04:11:14.284Z,-2.30
2022-12-14T04:14:05.034Z,-2.30
2022-12-14T04:16:56.624Z,-2.30
2022-12-14T04:19:31.689Z,-2.20
2022-12-14T04:22:05.369Z,-2.20
2022-12-14T04:24:57.221Z,-2.20
2022-12-14T04:27:33.734Z,-2.20
2022-12-14T04:30:01.685Z,-2.20
2022-12-14T04:32:35.290Z,-2.20
2022-12-14T04:35:10.209Z,-2.20
2022-12-14T04:37:41.613Z,-2.20
2022-12-14T04:40:12.506Z,-2.20
2022-12-14T04:42:47.485Z,-2.20
2022-12-14T04:45:20.259Z,-2.20
2022-12-14T04:47:57.166Z,-2.20
2022-12-14T04:50:31.586Z,-2.20
2022-12-14T04:53:04.665Z,-2.20
2022-12-14T04:55:39.157Z,-2.20
2022-12-14T04:58:12.490Z,-2.20
2022-12-14T05:01:04.282Z,-2.20
2022-12-14T05:03:34.573Z,-2.20
2022-12-14T05:06:11.687Z,-2.20
2022-12-14T05:09:02.042Z,-2.20
2022-12-14T05:14:29.419Z,-2.20
2022-12-14T05:16:57.941Z,-2.20
2022-12-14T05:19:26.619Z,-2.10
2022-12-14T05:21:56.459Z,-2.20
2022-12-14T05:24:24.191Z,-2.20
2022-12-14T05:26:51.886Z,-2.10
2022-12-14T05:29:19.638Z,-2.10
2022-12-14T05:31:49.560Z,-2.20
2022-12-14T05:34:18.253Z,-2.10
2022-12-14T05:36:46.176Z,-2.10
2022-12-14T05:39:16.151Z,-2.10
2022-12-14T05:41:44.292Z,-2.10
2022-12-14T05:44:12.385Z,-2.20
2022-12-14T05:46:40.116Z,-2.20
2022-12-14T05:49:07.899Z,-2.20
2022-12-14T05:51:35.695Z,-2.20
2022-12-14T05:54:03.527Z,-2.20
2022-12-14T05:56:32.831Z,-2.20
2022-12-14T05:59:00.552Z,-2.20
2022-12-14T06:01:28.333Z,-2.10
2022-12-14T06:03:56.168Z,-2.10
2022-12-14T06:06:23.931Z,-2.10
2022-12-14T06:08:51.699Z,-2.10
2022-12-14T06:11:20.907Z,-2.20
2022-12-14T06:13:50.836Z,-2.20
2022-12-14T06:16:21.022Z,-2.20
2022-12-14T06:18:50.614Z,-2.20
2022-12-14T06:21:20.373Z,-2.20
2022-12-14T06:23:48.762Z,-2.20
2022-12-14T06:26:17.197Z,-2.10
2022-12-14T06:28:45.367Z,-2.10
2022-12-14T06:31:18.421Z,-2.10
2022-12-14T06:33:46.959Z,-2.10
2022-12-14T06:36:18.918Z,-2.10
2022-12-14T06:38:46.736Z,-2.10
2022-12-14T06:41:14.667Z,-2.10
2022-12-14T06:43:42.615Z,-2.10
2022-12-14T06:46:15.033Z,-2.10
2022-12-14T06:48:49.511Z,-2.10
2022-12-14T06:51:17.279Z,-2.10
2022-12-14T06:53:45.116Z,-2.10
2022-12-14T06:56:15.149Z,-2.10
2022-12-14T06:58:43.548Z,-2.10
2022-12-14T07:01:14.145Z,-2.10
2022-12-14T07:03:44.032Z,-2.10
2022-12-14T07:06:11.792Z,-2.10
2022-12-14T07:08:40.225Z,-2.10
2022-12-14T07:11:09.843Z,-2.00
2022-12-14T07:13:37.709Z,-2.10
2022-12-14T07:16:08.010Z,-2.00
2022-12-14T07:18:36.005Z,-2.00
2022-12-14T07:21:09.362Z,-2.00
2022-12-14T07:23:38.363Z,-2.00
2022-12-14T07:26:07.664Z,-2.00
2022-12-14T07:28:36.943Z,-2.00
2022-12-14T07:31:07.671Z,-2.00
2022-12-14T07:33:35.859Z,-2.00
2022-12-14T07:36:07.595Z,-2.00
2022-12-14T07:38:36.387Z,-2.00
2022-12-14T07:41:05.846Z,-2.00
2022-12-14T07:43:34.097Z,-2.00
2022-12-14T07:46:03.245Z,-2.00
2022-12-14T07:48:31.582Z,-2.00
2022-12-14T07:51:03.074Z,-1.90
2022-12-14T07:53:32.211Z,-2.00
2022-12-14T07:56:03.649Z,-2.00
2022-12-14T07:58:31.674Z,-1.90
2022-12-14T08:01:11.321Z,-1.90
2022-12-14T08:03:39.599Z,-1.90
2022-12-14T08:06:08.298Z,-1.90
2022-12-14T08:08:37.712Z,-1.90
2022-12-14T08:11:05.943Z,-1.90
2022-12-14T08:13:34.566Z,-1.80
2022-12-14T08:16:06.328Z,-1.90
2022-12-14T08:18:34.329Z,-1.90
2022-12-14T08:21:02.375Z,-1.90
2022-12-14T08:23:30.693Z,-1.80
2022-12-14T08:26:01.491Z,-1.80
2022-12-14T08:28:30.722Z,-1.80
2022-12-14T08:30:59.610Z,-1.80
2022-12-14T08:33:27.663Z,-1.70
2022-12-14T08:35:55.883Z,-1.70
2022-12-14T08:38:23.572Z,-1.70
2022-12-14T08:40:51.268Z,-1.70
2022-12-14T08:43:24.829Z,-1.70
2022-12-14T08:45:55.675Z,-1.70
2022-12-14T08:48:24.617Z,-1.70
2022-12-14T08:50:52.480Z,-1.70
2022-12-14T08:53:20.581Z,-1.70
2022-12-14T08:55:48.303Z,-1.70
2022-12-14T08:58:16.005Z,-1.60
2022-12-14T09:00:45.078Z,-1.70
2022-12-14T09:03:12.805Z,-1.60
2022-12-14T09:05:40.572Z,-1.60
2022-12-14T09:08:08.258Z,-1.60
2022-12-14T09:10:35.939Z,-1.60
2022-12-14T09:13:03.600Z,-1.60
2022-12-14T09:15:31.283Z,-1.60
2022-12-14T09:18:00.262Z,-1.60
2022-12-14T09:20:27.979Z,-1.60
2022-12-14T09:22:55.650Z,-1.50
2022-12-14T09:25:23.390Z,-1.60
2022-12-14T09:27:51.055Z,-1.60
2022-12-14T09:30:24.781Z,-1.50
2022-12-14T09:32:54.331Z,-1.50
2022-12-14T09:35:23.433Z,-1.50
2022-12-14T09:37:51.943Z,-1.50
2022-12-14T09:40:19.967Z,-1.50
2022-12-14T09:42:56.582Z,-1.50
2022-12-14T09:45:31.128Z,-1.50
2022-12-14T09:48:06.072Z,-1.50
2022-12-14T09:50:35.759Z,-1.60
2022-12-14T09:53:07.665Z,-1.60
2022-12-14T09:55:38.648Z,-1.60
2022-12-14T09:58:11.535Z,-1.60
2022-12-14T10:00:51.448Z,-1.70
2022-12-14T10:03:37.972Z,-1.70
2022-12-14T10:06:28.755Z,-1.70
2022-12-14T10:09:04.409Z,-1.70
2022-12-14T10:11:40.280Z,-1.70
2022-12-14T10:14:19.811Z,-1.70
2022-12-14T10:16:55.961Z,-1.70
2022-12-14T10:19:34.971Z,-1.60
2022-12-14T10:22:09.573Z,-1.60
2022-12-14T10:24:41.612Z,-1.50
2022-12-14T10:27:11.174Z,-1.50
2022-12-14T10:29:44.507Z,-1.50
2022-12-14T10:32:21.094Z,-1.50
2022-12-14T10:34:49.050Z,-1.60
2022-12-14T10:37:27.016Z,-1.60
2022-12-14T10:40:27.435Z,-1.60
2022-12-14T10:43:14.723Z,-1.60
2022-12-14T10:45:49.187Z,-1.60
2022-12-14T10:48:37.097Z,-1.60
2022-12-14T10:51:08.191Z,-1.60
2022-12-14T10:53:43.267Z,-1.60
2022-12-14T10:56:17.314Z,-1.60
2022-12-14T10:58:45.085Z,-1.60
2022-12-14T11:01:15.924Z,-1.60
2022-12-14T11:03:47.439Z,-1.60
2022-12-14T11:06:19.857Z,-1.60
2022-12-14T11:08:50.340Z,-1.60
2022-12-14T11:11:20.025Z,-1.60
2022-12-14T11:13:53.488Z,-1.60
2022-12-14T11:16:36.543Z,-1.60
2022-12-14T11:19:06.312Z,-1.60
2022-12-14T11:21:36.771Z,-1.50
2022-12-14T11:24:07.072Z,-1.50
2022-12-14T11:26:37.353Z,-1.50
2022-12-14T11:29:07.196Z,-1.50
2022-12-14T11:31:38.923Z,-1.50
2022-12-14T11:34:22.305Z,-1.50
2022-12-14T11:36:50.688Z,-1.50
2022-12-14T11:39:23.510Z,-1.50
2022-12-14T11:41:52.798Z,-1.50
2022-12-14T11:44:26.009Z,-1.50
2022-12-14T11:46:56.288Z,-1.50
2022-12-14T11:49:29.428Z,-1.50
2022-12-14T11:52:01.380Z,-1.40
2022-12-14T11:54:31.003Z,-1.40
2022-12-14T11:57:02.949Z,-1.40
2022-12-14T11:59:38.434Z,-1.30
2022-12-14T12:02:18.255Z,-1.30
2022-12-14T12:04:49.008Z,-1.30
2022-12-14T12:07:33.570Z,-1.20
2022-12-14T12:10:22.110Z,-1.20
2022-12-14T12:12:54.554Z,-1.20
2022-12-14T12:15:25.677Z,-1.20
2022-12-14T12:17:56.528Z,-1.10
2022-12-14T12:20:34.395Z,-1.10
2022-12-14T12:23:12.752Z,-1.10
2022-12-14T12:25:44.876Z,-1.10
2022-12-14T12:28:18.644Z,-1.10
2022-12-14T12:30:50.954Z,-1.00
2022-12-14T12:33:28.850Z,-1.00
2022-12-14T12:36:00.613Z,-1.00
2022-12-14T12:38:50.353Z,-0.90
2022-12-14T12:41:35.409Z,-0.90
2022-12-14T12:44:16.115Z,-0.90
2022-12-14T12:47:22.773Z,-0.90
2022-12-14T12:49:42.745Z,-0.90
2022-12-14T12:52:20.162Z,-0.80
2022-12-14T12:54:55.204Z,-0.80
2022-12-14T12:57:26.974Z,-0.80
2022-12-14T12:59:57.908Z,-0.80
2022-12-14T13:02:32.309Z,-0.80
2022-12-14T13:05:16.559Z,-0.80
2022-12-14T13:07:55.404Z,-0.70
2022-12-14T13:10:24.940Z,-0.70
2022-12-14T13:12:57.984Z,-0.70
2022-12-14T13:15:29.764Z,-0.70
2022-12-14T13:18:01.936Z,-0.70
2022-12-14T13:20:32.183Z,-0.70
2022-12-14T13:23:15.176Z,-0.70
2022-12-14T13:26:00.148Z,-0.70
2022-12-14T13:28:46.720Z,-0.70
2022-12-14T13:31:25.614Z,-0.70
2022-12-14T13:34:08.002Z,-0.70
2022-12-14T13:37:13.599Z,-0.70
2022-12-14T13:40:03.538Z,-0.80
2022-12-14T13:42:43.850Z,-0.80
2022-12-14T13:45:19.296Z,-0.90
2022-12-14T13:47:51.408Z,-0.90
2022-12-14T13:50:38.383Z,-0.90
2022-12-14T13:53:16.889Z,-0.90
2022-12-14T13:55:51.702Z,-0.90
2022-12-14T13:58:23.691Z,-0.90
2022-12-14T14:01:01.376Z,-0.90
2022-12-14T14:03:53.281Z,-0.90
2022-12-14T14:06:34.040Z,-0.90
2022-12-14T14:09:50.175Z,-0.80
2022-12-14T14:12:41.650Z,-0.80
2022-12-14T14:15:32.887Z,-0.80
2022-12-14T14:18:21.195Z,-0.80
2022-12-14T14:20:57.011Z,-0.80
2022-12-14T14:23:35.518Z,-0.70
2022-12-14T14:26:28.626Z,-0.80
2022-12-14T14:29:32.688Z,-0.80
2022-12-14T14:32:02.193Z,-0.80
2022-12-14T14:34:45.900Z,-0.80
2022-12-14T14:37:26.724Z,-0.80
2022-12-14T14:40:33.533Z,-0.80
2022-12-14T14:43:23.807Z,-0.80
2022-12-14T14:45:55.048Z,-0.80
2022-12-14T14:48:29.138Z,-0.80
2022-12-14T14:51:17.293Z,-0.90
2022-12-14T14:53:45.389Z,-0.90
2022-12-14T14:56:34.932Z,-0.90
2022-12-14T14:59:39.552Z,-0.90
2022-12-14T15:02:29.851Z,-0.90
2022-12-14T15:05:17.405Z,-0.90
2022-12-14T15:07:46.481Z,-1.00
2022-12-14T15:10:24.447Z,-1.00
2022-12-14T15:12:55.669Z,-1.00
2022-12-14T15:15:30.291Z,-1.10
2022-12-14T15:18:20.229Z,-1.10
2022-12-14T15:20:57.266Z,-1.10
2022-12-14T15:23:25.633Z,-1.10
2022-12-14T15:25:58.727Z,-1.20
2022-12-14T15:28:28.018Z,-1.20
2022-12-14T15:30:58.386Z,-1.20
2022-12-14T15:33:31.052Z,-1.20
2022-12-14T15:36:05.297Z,-1.20
2022-12-14T15:38:35.472Z,-1.20
2022-12-14T15:41:15.966Z,-1.30
2022-12-14T15:43:45.864Z,-1.20
2022-12-14T15:46:18.733Z,-1.30
2022-12-14T15:48:47.873Z,-1.20
2022-12-14T15:51:19.128Z,-1.30
2022-12-14T15:53:50.120Z,-1.30
2022-12-14T15:56:24.676Z,-1.30
2022-12-14T15:58:54.184Z,-1.30
2022-12-14T16:01:26.839Z,-1.40
2022-12-14T16:04:00.245Z,-1.40
2022-12-14T16:06:29.840Z,-1.40
2022-12-14T16:09:01.013Z,-1.40
2022-12-14T16:11:36.580Z,-1.50
2022-12-14T16:14:12.366Z,-1.40
2022-12-14T16:16:40.281Z,-1.50
2022-12-14T16:19:26.538Z,-1.40
2022-12-14T16:22:11.978Z,-1.50
2022-12-14T16:25:03.480Z,-1.40
2022-12-14T16:27:32.595Z,-1.40
2022-12-14T16:30:16.639Z,-1.40
2022-12-14T16:32:44.497Z,-1.40
2022-12-14T16:35:21.818Z,-1.40
2022-12-14T16:37:52.373Z,-1.40
2022-12-14T16:40:28.719Z,-1.40
2022-12-14T16:42:56.502Z,-1.40
2022-12-14T16:46:10.350Z,-1.40
2022-12-14T16:48:41.459Z,-1.40
2022-12-14T16:51:50.945Z,-1.40
2022-12-14T16:54:26.918Z,-1.40
2022-12-14T16:57:01.099Z,-1.40
2022-12-14T16:59:38.012Z,-1.40
2022-12-14T17:02:06.380Z,-1.40
2022-12-14T17:04:37.537Z,-1.50
2022-12-14T17:07:06.610Z,-1.50
2022-12-14T17:09:35.289Z,-1.50
2022-12-14T17:12:10.930Z,-1.40
2022-12-14T17:14:38.774Z,-1.50
2022-12-14T17:17:06.703Z,-1.50
2022-12-14T17:19:37.162Z,-1.50
2022-12-14T17:22:13.156Z,-1.50
2022-12-14T17:24:40.955Z,-1.50
2022-12-14T17:27:08.695Z,-1.50
2022-12-14T17:29:36.551Z,-1.50
2022-12-14T17:32:04.355Z,-1.50
2022-12-14T17:34:32.126Z,-1.50
2022-12-14T17:37:00.201Z,-1.60
2022-12-14T17:39:35.629Z,-1.60
2022-12-14T17:42:03.411Z,-1.60
2022-12-14T17:44:31.405Z,-1.60
2022-12-14T17:46:59.430Z,-1.60
2022-12-14T17:49:34.767Z,-1.60
2022-12-14T17:52:04.222Z,-1.60
2022-12-14T17:54:33.596Z,-1.60
2022-12-14T17:57:01.511Z,-1.70
2022-12-14T17:59:29.838Z,-1.70
2022-12-14T18:01:57.687Z,-1.70
2022-12-14T18:04:25.714Z,-1.80
2022-12-14T18:06:53.461Z,-1.80
2022-12-14T18:09:21.312Z,-1.80
2022-12-14T18:12:21.592Z,-1.90
2022-12-14T18:14:38.573Z,-1.90
2022-12-14T18:17:11.198Z,-2.00
2022-12-14T18:19:40.000Z,-2.00
2022-12-14T18:22:08.336Z,-2.10
2022-12-14T18:24:36.158Z,-2.20
2022-12-14T18:27:05.471Z,-2.30
2022-12-14T18:29:33.418Z,-2.30
2022-12-14T18:32:01.807Z,-2.30
2022-12-14T18:34:29.597Z,-2.40
2022-12-14T18:36:57.670Z,-2.40
2022-12-14T18:39:25.412Z,-2.50
2022-12-14T18:41:53.258Z,-2.50
2022-12-14T18:44:22.338Z,-2.50
2022-12-14T18:46:50.552Z,-2.50
2022-12-14T18:49:18.377Z,-2.60
2022-12-14T18:51:46.205Z,-2.70
2022-12-14T18:54:14.139Z,-2.70
2022-12-14T18:56:42.922Z,-2.80
2022-12-14T18:59:10.997Z,-2.80
2022-12-14T19:01:40.692Z,-2.80
2022-12-14T19:04:09.890Z,-2.80
2022-12-14T19:06:45.790Z,-2.80
2022-12-14T19:09:14.597Z,-2.90
2022-12-14T19:11:43.386Z,-2.90
2022-12-14T19:14:11.514Z,-2.90
2022-12-14T19:16:41.913Z,-3.00
2022-12-14T19:19:09.685Z,-3.00
2022-12-14T19:21:37.483Z,-3.00
2022-12-14T19:26:43.185Z,-3.10
2022-12-14T19:29:12.144Z,-3.10
2022-12-14T19:31:41.356Z,-3.10
2022-12-14T19:34:09.696Z,-3.20
2022-12-14T19:36:37.454Z,-3.20
2022-12-14T19:39:05.391Z,-3.30
2022-12-14T19:41:33.133Z,-3.30
2022-12-14T19:44:01.869Z,-3.30
2022-12-14T19:46:29.768Z,-3.40
2022-12-14T19:48:59.652Z,-3.40
2022-12-14T19:51:27.899Z,-3.50
2022-12-14T19:53:55.906Z,-3.50
2022-12-14T19:56:23.681Z,-3.60
2022-12-14T19:58:51.432Z,-3.60
2022-12-14T20:01:19.247Z,-3.60
2022-12-14T20:03:49.114Z,-3.70
2022-12-14T20:06:18.557Z,-3.70
2022-12-14T20:08:49.615Z,-3.70
2022-12-14T20:11:17.694Z,-3.80
2022-12-14T20:13:45.450Z,-3.80
2022-12-14T20:16:17.390Z,-3.80
2022-12-14T20:18:45.472Z,-3.80
2022-12-14T20:21:20.165Z,-3.80
2022-12-14T20:23:51.895Z,-3.90
2022-12-14T20:26:21.998Z,-3.90
2022-12-14T20:28:50.027Z,-3.90
2022-12-14T20:31:18.304Z,-4.00
2022-12-14T20:33:46.910Z,-4.00
2022-12-14T20:36:14.714Z,-4.00
2022-12-14T20:38:42.466Z,-4.10
2022-12-14T20:41:13.893Z,-4.10
2022-12-14T20:43:43.673Z,-4.10
2022-12-14T20:46:25.912Z,-4.10
2022-12-14T20:48:54.117Z,-4.10
2022-12-14T20:51:21.963Z,-4.20
2022-12-14T20:53:50.402Z,-4.20
2022-12-14T20:56:19.499Z,-4.20
2022-12-14T20:58:48.325Z,-4.20
2022-12-14T21:01:17.370Z,-4.20
2022-12-14T21:03:46.646Z,-4.30
2022-12-14T21:06:16.761Z,-4.30
2022-12-14T21:09:05.037Z,-4.30
2022-12-14T21:11:53.914Z,-4.30
2022-12-14T21:14:23.231Z,-4.30
2022-12-14T21:16:51.178Z,-4.30
2022-12-14T21:19:19.358Z,-4.40
2022-12-14T21:21:53.254Z,-4.40
2022-12-14T21:24:52.712Z,-4.40
2022-12-14T21:27:16.663Z,-4.40
2022-12-14T21:29:45.320Z,-4.50
2022-12-14T21:32:13.367Z,-4.50
2022-12-14T21:34:42.265Z,-4.50
2022-12-14T21:37:10.432Z,-4.60
2022-12-14T21:39:38.371Z,-4.60
2022-12-14T21:42:12.906Z,-4.60
2022-12-14T21:44:43.823Z,-4.70
2022-12-14T21:47:14.281Z,-4.70
2022-12-14T21:49:43.428Z,-4.70
2022-12-14T21:52:13.604Z,-4.80
2022-12-14T21:54:42.203Z,-4.80
2022-12-14T21:57:31.994Z,-4.90
2022-12-14T22:00:01.265Z,-4.90
2022-12-14T22:02:29.550Z,-4.90
2022-12-14T22:04:57.642Z,-4.90
2022-12-14T22:07:30.574Z,-5.00
2022-12-14T22:09:58.389Z,-5.00
2022-12-14T22:12:26.260Z,-5.00
2022-12-14T22:14:54.164Z,-5.00
2022-12-14T22:17:23.253Z,-5.10
2022-12-14T22:19:52.049Z,-5.10
2022-12-14T22:22:19.821Z,-5.10
2022-12-14T22:24:49.382Z,-5.10
2022-12-14T22:27:17.153Z,-5.10
2022-12-14T22:29:44.897Z,-5.10
2022-12-14T22:32:13.236Z,-5.20
2022-12-14T22:34:42.380Z,-5.20
2022-12-14T22:37:10.128Z,-5.20
2022-12-14T22:39:37.983Z,-5.30
2022-12-14T22:42:06.066Z,-5.30
2022-12-14T22:44:33.777Z,-5.30
2022-12-14T22:47:01.497Z,-5.30
2022-12-14T22:49:29.200Z,-5.40
2022-12-14T22:51:58.220Z,-5.40
2022-12-14T22:54:27.817Z,-5.30
2022-12-14T22:56:59.029Z,-5.40
2022-12-14T22:59:30.384Z,-5.50
2022-12-14T23:01:59.267Z,-5.50
2022-12-14T23:04:27.281Z,-5.50
2022-12-14T23:06:55.787Z,-5.50
2022-12-14T23:09:42.437Z,-5.50
2022-12-14T23:12:27.665Z,-5.50
2022-12-14T23:15:12.865Z,-5.60
2022-12-14T23:17:58.402Z,-5.60
2022-12-14T23:20:43.611Z,-5.60
2022-12-14T23:23:29.346Z,-5.60
2022-12-14T23:26:19.841Z,-5.60
2022-12-14T23:29:05.124Z,-5.60
2022-12-14T23:31:50.246Z,-5.60
2022-12-14T23:34:35.561Z,-5.70
2022-12-14T23:37:20.898Z,-5.70
2022-12-14T23:40:06.829Z,-5.80
2022-12-14T23:42:53.481Z,-5.80
2022-12-14T23:45:38.916Z,-5.90
2022-12-14T23:48:24.580Z,-5.90
2022-12-14T23:51:09.836Z,-5.90
2022-12-14T23:53:54.909Z,-5.90
2022-12-14T23:56:39.985Z,-5.90
2022-12-14T23:59:31.909Z,-5.90
